Aérodrome :
LOGIN :

S'inscrire | Disclaimer

   EN    FR    IT 

 










Légende :    VFR   VFR Marginal   IFR   IFR Intensif   IFR Très Intensif
Visi : 
Plafond : 
>= 8 km
>= 3000ft
5 à 8 km
1000 à 3000 ft
1500m à 5 km
500 à 1000 ft
800 à 1500m
200 à 500 ft
< 800m
< 200 ft
Symboles :   Orages  Brouillard  Fortes neiges  Fortes précipitations  Vent > 20 kt
SIGMETs :   Divers  Orages  Givrage  Turbulence  Onde Orograph.  Cendres Volcan.







- Altitude de l'aérodrome : 1910 ft
- Code IATA : RDZ
- Voir les cartes d'approche


LFCR - Rodez

DERNIER METAR :
  • 251200Z AUTO 28009KT 6000 OVC005 13/12 Q1021 BECMG BKN018

METARs EXPIRÉS :
  • 251130Z AUTO 26008KT 9999 OVC005 13/12 Q1021 BECMG BKN018
  • 251100Z AUTO 25008KT 9999 OVC005 13/12 Q1022 BECMG BKN018
  • 251030Z AUTO 22007KT 9999 OVC005 13/12 Q1021 BECMG BKN018
  • 251000Z AUTO 21008KT 9999 OVC005 13/12 Q1022 BECMG BKN018
  • 250930Z AUTO 19008KT 170V230 9999 OVC006 13/12 Q1021 BECMG BKN018

TAF TAF LFCR
Valide du 25 à 12h jusqu'au 26 à 12h UTC


251100Z 2512/2612 29008KT 9999 OVC005
BECMG 2512/2514 BKN018
BECMG 2602/2604 CAVOK
PROB30
TEMPO 2605/2608 BKN013
Pas de NOTAMs connus pour ce terrain.



MET'MAP, la Météo Aéronautique d'un coup d'oeil ! - Copyright ORBIFLY Décembre 2007 - Disclaimer

ORBIFLY MET'MAP TEAM :

Programmation & Développement : Alexandra Zaïnal
Conception & Développement : Baudouin d'Aumeries
Co-Programmation & Développement : Marc-Olivier Méhu
Soutien technique & logistique : Manuel Goepfert

Contact : metmap@orbifly.com




SOURCES & CREDITS :

   NOAA